Time;durP1;ratioP1;P1;durP2;ratioP2;P2;SDS_P1;SDS_P2;PMS_P1;PMS_P2;Temp;Humidity;BMP_temperature;BMP_pressure;BME280_temperature;BME280_humidity;BME280_pressure;Samples;Min_cycle;Max_cycle;Signal;HPM_P1;HPM_P2
2021/12/10 00:00:08;;;;;;;5.12;2.90;;;;;;;;;;1924522;74;21082;-41
2021/12/10 00:02:38;;;;;;;3.37;2.87;;;;;;;;;;1924571;74;21075;-41
2021/12/10 00:05:08;;;;;;;3.30;2.70;;;;;;;;;;1924647;74;21027;-41
2021/12/10 00:07:36;;;;;;;3.55;2.83;;;;;;;;;;1924725;74;20994;-41
2021/12/10 00:10:06;;;;;;;4.75;3.15;;;;;;;;;;1924510;74;21034;-41
2021/12/10 00:12:36;;;;;;;4.37;2.90;;;;;;;;;;1924511;74;21145;-41
2021/12/10 00:15:06;;;;;;;4.75;3.15;;;;;;;;;;1924490;74;21046;-41
2021/12/10 00:17:35;;;;;;;4.78;3.10;;;;;;;;;;1924498;74;21096;-41
2021/12/10 00:20:04;;;;;;;5.12;2.95;;;;;;;;;;1924480;74;21088;-41
2021/12/10 00:22:39;;;;;;;3.50;3.12;;;;;;;;;;1924640;74;21473;-41
2021/12/10 00:25:07;;;;;;;4.53;3.17;;;;;;;;;;1923669;74;21031;-41
2021/12/10 00:27:36;;;;;;;12.00;3.55;;;;;;;;;;1924483;74;20999;-41
2021/12/10 00:30:09;;;;;;;4.22;2.80;;;;;;;;;;1924641;74;21022;-41
2021/12/10 00:32:40;;;;;;;4.42;3.30;;;;;;;;;;1923421;74;21047;-41
2021/12/10 00:35:10;;;;;;;4.95;3.10;;;;;;;;;;1924596;74;21043;-41
2021/12/10 00:37:39;;;;;;;5.12;2.72;;;;;;;;;;1924569;74;21042;-41
2021/12/10 00:40:09;;;;;;;3.37;2.70;;;;;;;;;;1924645;74;21175;-41
2021/12/10 00:42:38;;;;;;;4.05;2.92;;;;;;;;;;1924616;74;21530;-41
2021/12/10 00:45:08;;;;;;;6.28;3.00;;;;;;;;;;1924528;74;21031;-41
2021/12/10 00:47:37;;;;;;;11.38;3.75;;;;;;;;;;1924563;74;21092;-41
2021/12/10 00:50:07;;;;;;;5.35;3.40;;;;;;;;;;1924637;74;21027;-42
2021/12/10 00:52:35;;;;;;;3.35;2.90;;;;;;;;;;1924751;74;21080;-41
2021/12/10 00:55:06;;;;;;;4.97;3.52;;;;;;;;;;1924799;74;21031;-41
2021/12/10 00:57:34;;;;;;;5.85;3.65;;;;;;;;;;1924747;74;21018;-41
2021/12/10 01:00:04;;;;;;;5.70;3.58;;;;;;;;;;1924558;74;21107;-41
2021/12/10 01:02:33;;;;;;;3.67;3.30;;;;;;;;;;1924566;74;21089;-41
2021/12/10 01:05:02;;;;;;;5.42;3.35;;;;;;;;;;1924608;74;21074;-41
2021/12/10 01:07:32;;;;;;;5.42;4.28;;;;;;;;;;1924797;74;21046;-41
2021/12/10 01:10:02;;;;;;;5.75;3.72;;;;;;;;;;1924654;74;21084;-41
2021/12/10 01:12:33;;;;;;;5.85;4.08;;;;;;;;;;1924721;74;21014;-41
2021/12/10 01:15:20;;;;;;;6.17;3.75;;;;;;;;;;1924702;74;21191;-41
2021/12/10 01:26:11;;;;;;;4.37;3.33;;;;;;;;;;1924741;74;21039;-41
2021/12/10 01:28:37;;;;;;;6.12;3.60;;;;;;;;;;1924422;74;21465;-41
2021/12/10 01:31:06;;;;;;;5.25;3.95;;;;;;;;;;1924847;74;21453;-41
2021/12/10 01:33:35;;;;;;;5.85;4.12;;;;;;;;;;1921048;74;21054;-41
2021/12/10 01:36:09;;;;;;;4.37;3.47;;;;;;;;;;1905366;75;21027;-41
2021/12/10 01:38:37;;;;;;;5.75;3.37;;;;;;;;;;1903778;74;21031;-42
2021/12/10 01:41:08;;;;;;;4.50;3.05;;;;;;;;;;1905262;74;21019;-41
2021/12/10 01:43:39;;;;;;;5.03;3.98;;;;;;;;;;1905239;75;21486;-41
2021/12/10 01:46:10;;;;;;;5.12;3.35;;;;;;;;;;1905511;75;21531;-41
2021/12/10 01:48:43;;;;;;;4.47;3.60;;;;;;;;;;1905243;75;21493;-41
2021/12/10 01:51:13;;;;;;;4.58;3.55;;;;;;;;;;1905311;75;20987;-41
2021/12/10 01:53:43;;;;;;;4.25;3.20;;;;;;;;;;1905226;75;21089;-41
2021/12/10 01:56:13;;;;;;;4.75;3.47;;;;;;;;;;1905199;74;21027;-41
2021/12/10 01:58:42;;;;;;;3.87;3.10;;;;;;;;;;1905164;75;21470;-41
2021/12/10 02:01:15;;;;;;;4.00;3.33;;;;;;;;;;1905321;75;21070;-41
2021/12/10 02:03:44;;;;;;;5.60;3.40;;;;;;;;;;1905375;75;21016;-41
2021/12/10 02:06:13;;;;;;;5.37;3.30;;;;;;;;;;1905337;74;21093;-41
2021/12/10 02:08:42;;;;;;;6.40;3.37;;;;;;;;;;1905407;75;21101;-41
2021/12/10 02:11:11;;;;;;;6.28;3.58;;;;;;;;;;1905398;74;21606;-41
2021/12/10 02:13:40;;;;;;;4.90;3.42;;;;;;;;;;1905381;75;21035;-41
2021/12/10 02:16:09;;;;;;;5.85;3.98;;;;;;;;;;1905271;75;21411;-41
2021/12/10 02:18:38;;;;;;;4.97;3.70;;;;;;;;;;1905370;75;21039;-41
2021/12/10 02:21:08;;;;;;;4.47;3.85;;;;;;;;;;1905275;75;21085;-41
2021/12/10 02:23:38;;;;;;;4.03;3.50;;;;;;;;;;1905158;75;21085;-41
2021/12/10 02:26:07;;;;;;;6.15;4.30;;;;;;;;;;1905399;75;21019;-41
2021/12/10 02:28:36;;;;;;;6.62;3.72;;;;;;;;;;1905309;75;21024;-41
2021/12/10 02:31:07;;;;;;;5.55;3.85;;;;;;;;;;1905219;75;20996;-41
2021/12/10 02:33:36;;;;;;;6.10;4.08;;;;;;;;;;1905189;74;21083;-41
2021/12/10 02:36:10;;;;;;;5.40;3.90;;;;;;;;;;1924587;74;21043;-41
2021/12/10 02:38:35;;;;;;;9.65;4.10;;;;;;;;;;1924245;74;21549;-41
2021/12/10 02:41:04;;;;;;;5.70;3.90;;;;;;;;;;1924605;74;21143;-41
2021/12/10 02:43:33;;;;;;;7.55;4.30;;;;;;;;;;1924599;74;21509;-41
2021/12/10 02:46:02;;;;;;;7.78;4.55;;;;;;;;;;1924674;74;21096;-41
2021/12/10 02:48:31;;;;;;;6.15;4.25;;;;;;;;;;1924537;74;21152;-41
2021/12/10 02:51:00;;;;;;;6.03;3.95;;;;;;;;;;1924673;74;21031;-42
2021/12/10 02:53:34;;;;;;;6.03;4.00;;;;;;;;;;1924608;74;21018;-41
2021/12/10 02:55:59;;;;;;;8.23;4.28;;;;;;;;;;1924289;74;21520;-41
2021/12/10 02:58:28;;;;;;;17.23;6.60;;;;;;;;;;1924609;74;21089;-41
2021/12/10 03:00:58;;;;;;;11.57;5.47;;;;;;;;;;1924514;74;21039;-41
2021/12/10 03:03:27;;;;;;;28.35;9.45;;;;;;;;;;1924657;74;21038;-41
2021/12/10 03:05:56;;;;;;;30.02;8.05;;;;;;;;;;1924593;74;21110;-41
2021/12/10 03:08:25;;;;;;;26.57;8.08;;;;;;;;;;1924687;74;21035;-41
2021/12/10 03:10:54;;;;;;;22.85;7.28;;;;;;;;;;1924577;74;21112;-41
2021/12/10 03:13:22;;;;;;;17.92;6.20;;;;;;;;;;1924594;74;21023;-41
2021/12/10 03:15:52;;;;;;;13.15;6.87;;;;;;;;;;1924524;74;21118;-41
2021/12/10 03:18:21;;;;;;;14.20;6.25;;;;;;;;;;1924566;74;21098;-41
2021/12/10 03:20:50;;;;;;;11.03;5.72;;;;;;;;;;1924536;74;21128;-41
2021/12/10 03:23:19;;;;;;;13.38;5.62;;;;;;;;;;1924561;74;21034;-41
2021/12/10 03:25:47;;;;;;;13.72;5.72;;;;;;;;;;1924639;74;21043;-41
2021/12/10 03:28:16;;;;;;;14.90;5.37;;;;;;;;;;1924615;74;21043;-41
2021/12/10 03:30:46;;;;;;;18.98;6.30;;;;;;;;;;1924667;74;21022;-41
2021/12/10 03:33:15;;;;;;;12.13;5.12;;;;;;;;;;1924623;74;21076;-41
2021/12/10 03:35:45;;;;;;;12.43;4.92;;;;;;;;;;1924470;74;21047;-41
2021/12/10 03:38:15;;;;;;;13.48;5.97;;;;;;;;;;1924684;74;21445;-41
2021/12/10 03:40:44;;;;;;;10.20;5.35;;;;;;;;;;1924654;74;21077;-41
2021/12/10 03:43:12;;;;;;;44.20;31.87;;;;;;;;;;1924643;74;21076;-41
2021/12/10 03:45:42;;;;;;;55.05;32.73;;;;;;;;;;1924531;74;21035;-41
2021/12/10 03:48:13;;;;;;;40.25;30.27;;;;;;;;;;1924556;74;21092;-41
2021/12/10 03:50:42;;;;;;;36.40;23.83;;;;;;;;;;1923830;74;21055;-42
2021/12/10 03:53:11;;;;;;;29.52;20.50;;;;;;;;;;1924469;74;21109;-41
2021/12/10 03:55:40;;;;;;;21.80;15.48;;;;;;;;;;1924519;74;21097;-41
2021/12/10 03:58:09;;;;;;;25.20;13.20;;;;;;;;;;1924624;74;21034;-41
2021/12/10 04:00:40;;;;;;;24.18;13.93;;;;;;;;;;1924556;74;21029;-41
2021/12/10 04:03:09;;;;;;;23.73;11.83;;;;;;;;;;1924646;74;21019;-41
2021/12/10 04:05:38;;;;;;;17.95;10.85;;;;;;;;;;1924492;74;21035;-41
2021/12/10 04:08:07;;;;;;;20.70;9.40;;;;;;;;;;1924542;74;21006;-41
2021/12/10 04:10:36;;;;;;;25.12;7.95;;;;;;;;;;1924628;74;21023;-41
2021/12/10 04:13:06;;;;;;;15.78;6.67;;;;;;;;;;1924612;74;21054;-41
2021/12/10 04:15:36;;;;;;;22.45;7.70;;;;;;;;;;1924607;74;21019;-41
2021/12/10 04:18:06;;;;;;;18.48;7.05;;;;;;;;;;1924483;74;21058;-40
2021/12/10 04:20:35;;;;;;;17.50;7.60;;;;;;;;;;1924617;74;21046;-41
2021/12/10 04:23:05;;;;;;;12.80;6.00;;;;;;;;;;1924575;74;21019;-41
2021/12/10 04:25:33;;;;;;;12.33;6.47;;;;;;;;;;1924622;74;21018;-41
2021/12/10 04:28:03;;;;;;;14.33;6.62;;;;;;;;;;1924509;74;21003;-41
2021/12/10 04:30:37;;;;;;;10.60;5.72;;;;;;;;;;1924483;74;21026;-41
2021/12/10 04:33:03;;;;;;;14.50;7.37;;;;;;;;;;1924207;74;21023;-41
2021/12/10 04:35:32;;;;;;;71.77;11.75;;;;;;;;;;1924399;74;21128;-41
2021/12/10 04:38:01;;;;;;;26.93;8.33;;;;;;;;;;1924489;74;21081;-41
2021/12/10 04:40:30;;;;;;;18.52;8.28;;;;;;;;;;1924443;74;21136;-41
2021/12/10 04:42:59;;;;;;;39.08;8.50;;;;;;;;;;1924515;74;20991;-41
2021/12/10 04:45:28;;;;;;;28.73;8.00;;;;;;;;;;1924636;74;21011;-41
2021/12/10 04:47:56;;;;;;;31.77;9.05;;;;;;;;;;1924619;74;21019;-41
2021/12/10 04:50:27;;;;;;;18.60;7.80;;;;;;;;;;1924680;74;21015;-41
2021/12/10 04:52:56;;;;;;;36.40;9.50;;;;;;;;;;1924645;74;21118;-41
2021/12/10 04:55:25;;;;;;;25.97;7.87;;;;;;;;;;1924643;74;21030;-41
2021/12/10 04:57:54;;;;;;;42.73;8.43;;;;;;;;;;1924501;74;21109;-41
2021/12/10 05:00:30;;;;;;;33.20;9.33;;;;;;;;;;1924698;74;21175;-41
2021/12/10 05:03:00;;;;;;;27.93;8.63;;;;;;;;;;1924691;74;21022;-41
2021/12/10 05:05:29;;;;;;;29.40;10.40;;;;;;;;;;1924711;74;21076;-42
2021/12/10 05:07:58;;;;;;;17.92;7.35;;;;;;;;;;1924716;74;21026;-41
2021/12/10 05:10:27;;;;;;;14.20;8.80;;;;;;;;;;1924580;74;21400;-41
2021/12/10 05:12:56;;;;;;;20.72;8.40;;;;;;;;;;1924748;74;21108;-41
2021/12/10 05:15:26;;;;;;;19.60;7.00;;;;;;;;;;1924597;74;21023;-41
2021/12/10 05:17:55;;;;;;;10.82;6.60;;;;;;;;;;1924658;74;20991;-42
2021/12/10 05:20:25;;;;;;;18.40;7.95;;;;;;;;;;1924716;74;21027;-41
2021/12/10 05:22:53;;;;;;;14.93;7.75;;;;;;;;;;1924509;74;21022;-42
2021/12/10 05:25:24;;;;;;;11.70;7.15;;;;;;;;;;1924682;74;21109;-41
2021/12/10 05:27:52;;;;;;;12.00;6.42;;;;;;;;;;1924523;74;21085;-41
2021/12/10 05:30:23;;;;;;;9.88;5.42;;;;;;;;;;1924677;74;21039;-41
2021/12/10 05:32:51;;;;;;;18.25;6.87;;;;;;;;;;1924782;74;21003;-41
2021/12/10 05:35:20;;;;;;;12.20;6.83;;;;;;;;;;1924633;74;21140;-41
2021/12/10 05:37:49;;;;;;;18.10;8.63;;;;;;;;;;1924685;74;21080;-41
2021/12/10 05:40:18;;;;;;;13.35;6.95;;;;;;;;;;1924688;74;21096;-42
2021/12/10 05:42:47;;;;;;;17.02;9.48;;;;;;;;;;1924600;74;21113;-40
2021/12/10 05:45:18;;;;;;;12.18;6.62;;;;;;;;;;1924709;74;21023;-41
2021/12/10 05:47:47;;;;;;;19.00;8.25;;;;;;;;;;1924550;74;21015;-41
2021/12/10 05:50:17;;;;;;;20.72;8.30;;;;;;;;;;1924049;74;21062;-42
2021/12/10 05:52:46;;;;;;;15.90;6.97;;;;;;;;;;1924516;74;21038;-41
2021/12/10 05:55:16;;;;;;;27.13;9.28;;;;;;;;;;1924663;74;21073;-41
2021/12/10 05:57:45;;;;;;;21.40;9.18;;;;;;;;;;1924655;74;21547;-41
2021/12/10 06:00:15;;;;;;;16.23;7.40;;;;;;;;;;1924643;74;21023;-41
2021/12/10 06:02:43;;;;;;;23.38;7.28;;;;;;;;;;1924542;74;21018;-41
2021/12/10 06:05:13;;;;;;;19.23;8.15;;;;;;;;;;1924583;74;21096;-41
2021/12/10 06:07:41;;;;;;;18.80;8.13;;;;;;;;;;1924553;74;20998;-41
2021/12/10 06:10:12;;;;;;;16.05;6.50;;;;;;;;;;1924578;74;21128;-41
2021/12/10 06:12:41;;;;;;;12.30;6.08;;;;;;;;;;1924631;74;21085;-42
2021/12/10 06:15:10;;;;;;;13.38;6.65;;;;;;;;;;1924724;74;21023;-41
2021/12/10 06:17:39;;;;;;;14.15;6.15;;;;;;;;;;1924682;74;21023;-41
2021/12/10 06:20:09;;;;;;;12.93;5.58;;;;;;;;;;1924538;74;21031;-41
2021/12/10 06:22:38;;;;;;;11.60;5.40;;;;;;;;;;1924622;74;21007;-41
2021/12/10 06:25:07;;;;;;;13.45;5.65;;;;;;;;;;1924589;74;21136;-41
2021/12/10 06:27:38;;;;;;;10.53;5.50;;;;;;;;;;1924762;74;20995;-40
2021/12/10 06:30:07;;;;;;;11.48;5.35;;;;;;;;;;1924624;74;21153;-42
2021/12/10 06:32:36;;;;;;;12.95;5.80;;;;;;;;;;1924541;74;20995;-41
2021/12/10 06:35:05;;;;;;;8.13;5.62;;;;;;;;;;1924646;74;21019;-41
2021/12/10 06:37:34;;;;;;;9.10;5.37;;;;;;;;;;1924368;74;21054;-41
2021/12/10 06:40:04;;;;;;;17.40;5.78;;;;;;;;;;1924677;74;21090;-41
2021/12/10 06:42:33;;;;;;;10.72;5.67;;;;;;;;;;1924755;74;21014;-41
2021/12/10 06:45:06;;;;;;;13.08;5.87;;;;;;;;;;1924735;74;21034;-41
2021/12/10 06:47:36;;;;;;;12.55;6.47;;;;;;;;;;1924752;74;21070;-41
2021/12/10 06:50:05;;;;;;;9.93;5.95;;;;;;;;;;1924576;74;21080;-41
2021/12/10 06:52:34;;;;;;;10.75;6.25;;;;;;;;;;1924631;74;21084;-41
2021/12/10 06:55:04;;;;;;;11.90;6.00;;;;;;;;;;1924561;74;21096;-41
2021/12/10 06:57:34;;;;;;;11.73;5.97;;;;;;;;;;1924631;74;21022;-41
2021/12/10 07:00:04;;;;;;;12.70;6.85;;;;;;;;;;1924560;74;21558;-41
2021/12/10 07:02:32;;;;;;;10.15;6.20;;;;;;;;;;1924565;74;21505;-41
2021/12/10 07:05:01;;;;;;;16.77;6.60;;;;;;;;;;1924508;74;21059;-41
2021/12/10 07:07:32;;;;;;;10.72;5.85;;;;;;;;;;1924390;74;21102;-41
2021/12/10 07:10:01;;;;;;;13.20;6.15;;;;;;;;;;1924656;74;21508;-42
2021/12/10 07:12:29;;;;;;;11.12;6.42;;;;;;;;;;1924410;74;21101;-41
2021/12/10 07:15:01;;;;;;;12.28;6.08;;;;;;;;;;1924522;74;21030;-41
2021/12/10 07:17:29;;;;;;;8.85;6.33;;;;;;;;;;1924315;74;21112;-40
2021/12/10 07:19:58;;;;;;;8.48;6.28;;;;;;;;;;1924540;74;21022;-41
2021/12/10 07:22:27;;;;;;;15.35;5.78;;;;;;;;;;1924514;74;20995;-41
2021/12/10 07:24:55;;;;;;;8.20;6.53;;;;;;;;;;1924591;74;21027;-41
2021/12/10 07:27:24;;;;;;;7.58;5.25;;;;;;;;;;1924527;74;21090;-42
2021/12/10 07:29:53;;;;;;;9.03;6.10;;;;;;;;;;1924463;74;21073;-41
2021/12/10 07:32:22;;;;;;;10.70;6.17;;;;;;;;;;1924489;74;21038;-41
2021/12/10 07:34:51;;;;;;;10.25;6.25;;;;;;;;;;1924556;74;21159;-42
2021/12/10 07:37:21;;;;;;;10.88;6.78;;;;;;;;;;1924571;74;21104;-41
2021/12/10 07:39:50;;;;;;;8.63;5.12;;;;;;;;;;1924520;74;21019;-41
2021/12/10 07:42:19;;;;;;;10.95;5.17;;;;;;;;;;1924449;74;21088;-41
2021/12/10 07:44:47;;;;;;;55.70;28.83;;;;;;;;;;1924472;74;21082;-41
2021/12/10 07:47:17;;;;;;;9.75;6.53;;;;;;;;;;1924436;74;21003;-41
2021/12/10 07:49:45;;;;;;;8.90;5.28;;;;;;;;;;1924567;74;21027;-41
2021/12/10 07:52:18;;;;;;;5.35;3.83;;;;;;;;;;1924579;74;21083;-41
2021/12/10 07:54:46;;;;;;;6.40;3.40;;;;;;;;;;1924273;74;21477;-41
2021/12/10 07:57:16;;;;;;;4.60;3.67;;;;;;;;;;1924339;74;21064;-42
2021/12/10 07:59:45;;;;;;;3.65;2.90;;;;;;;;;;1924563;74;20991;-41
2021/12/10 08:02:14;;;;;;;4.55;3.12;;;;;;;;;;1924436;74;21019;-41
2021/12/10 08:04:43;;;;;;;11.68;3.40;;;;;;;;;;1924542;74;21015;-41
2021/12/10 08:07:13;;;;;;;4.53;2.60;;;;;;;;;;1924592;74;21124;-41
2021/12/10 08:09:43;;;;;;;5.42;2.87;;;;;;;;;;1924550;74;21101;-41
2021/12/10 08:12:12;;;;;;;6.17;3.15;;;;;;;;;;1924634;74;21097;-41
2021/12/10 08:14:40;;;;;;;9.10;3.65;;;;;;;;;;1924507;74;21088;-41
2021/12/10 08:17:10;;;;;;;5.08;3.02;;;;;;;;;;1924512;74;21111;-41
2021/12/10 08:19:39;;;;;;;3.58;2.72;;;;;;;;;;1924439;74;21039;-41
2021/12/10 08:22:08;;;;;;;3.67;2.45;;;;;;;;;;1924369;74;21772;-41
2021/12/10 08:24:36;;;;;;;3.00;2.47;;;;;;;;;;1924390;74;21010;-41
2021/12/10 08:27:05;;;;;;;6.05;3.35;;;;;;;;;;1924425;74;21036;-42
2021/12/10 08:29:34;;;;;;;7.97;4.12;;;;;;;;;;1924571;74;21100;-41
2021/12/10 08:32:03;;;;;;;4.55;2.90;;;;;;;;;;1924493;74;21036;-41
2021/12/10 08:34:32;;;;;;;3.62;2.80;;;;;;;;;;1924367;74;21097;-41
2021/12/10 08:37:01;;;;;;;6.00;3.45;;;;;;;;;;1920134;74;21051;-41
2021/12/10 08:39:30;;;;;;;6.50;4.37;;;;;;;;;;1905208;74;21044;-42
2021/12/10 08:41:59;;;;;;;10.30;3.62;;;;;;;;;;1904941;75;21039;-42
2021/12/10 08:44:28;;;;;;;5.70;3.85;;;;;;;;;;1905063;75;21011;-41
2021/12/10 08:46:57;;;;;;;6.35;3.30;;;;;;;;;;1905061;75;21097;-41
2021/12/10 08:49:27;;;;;;;3.30;2.65;;;;;;;;;;1905110;74;21089;-41
2021/12/10 08:51:57;;;;;;;4.30;2.83;;;;;;;;;;1905072;74;21085;-42
2021/12/10 08:54:27;;;;;;;3.98;3.27;;;;;;;;;;1905115;75;21524;-42
2021/12/10 08:56:56;;;;;;;11.10;5.30;;;;;;;;;;1905138;75;21019;-42
2021/12/10 08:59:25;;;;;;;7.33;3.75;;;;;;;;;;1904989;75;21008;-41
2021/12/10 09:01:55;;;;;;;5.62;3.12;;;;;;;;;;1905087;75;21020;-41
2021/12/10 09:04:24;;;;;;;8.08;3.58;;;;;;;;;;1905168;75;20988;-41
2021/12/10 09:07:00;;;;;;;6.08;2.77;;;;;;;;;;1905191;75;21035;-41
2021/12/10 09:09:24;;;;;;;3.65;2.77;;;;;;;;;;1904609;74;21043;-41
2021/12/10 09:11:55;;;;;;;5.35;2.92;;;;;;;;;;1904978;74;21043;-41
2021/12/10 09:14:27;;;;;;;16.87;3.62;;;;;;;;;;1904992;75;21470;-41
2021/12/10 09:16:56;;;;;;;7.20;3.30;;;;;;;;;;1904715;75;21528;-42
2021/12/10 09:19:25;;;;;;;14.90;8.83;;;;;;;;;;1904537;75;21102;-41
2021/12/10 09:21:54;;;;;;;7.03;3.27;;;;;;;;;;1903222;74;21063;-42
2021/12/10 09:24:24;;;;;;;4.05;3.30;;;;;;;;;;1904796;75;21031;-42
2021/12/10 09:26:55;;;;;;;5.53;3.15;;;;;;;;;;1904977;75;21019;-41
2021/12/10 09:29:25;;;;;;;3.65;2.65;;;;;;;;;;1905109;75;21011;-41
2021/12/10 09:31:54;;;;;;;6.87;3.77;;;;;;;;;;1905161;74;21073;-41
2021/12/10 09:34:22;;;;;;;3.47;3.08;;;;;;;;;;1905143;74;21004;-42
2021/12/10 09:36:51;;;;;;;8.58;3.58;;;;;;;;;;1905073;74;21063;-41
2021/12/10 09:39:21;;;;;;;3.42;2.77;;;;;;;;;;1905271;75;21051;-42
2021/12/10 09:41:50;;;;;;;33.15;5.50;;;;;;;;;;1905153;75;21121;-42
2021/12/10 09:44:20;;;;;;;13.18;5.10;;;;;;;;;;1905157;75;21564;-42
2021/12/10 09:46:49;;;;;;;8.78;2.40;;;;;;;;;;1905269;75;21094;-42
2021/12/10 09:49:18;;;;;;;5.20;2.55;;;;;;;;;;1905261;75;21089;-41
2021/12/10 09:51:48;;;;;;;8.08;3.87;;;;;;;;;;1905214;75;21117;-42
2021/12/10 09:54:19;;;;;;;4.47;2.92;;;;;;;;;;1905389;75;21454;-42
2021/12/10 09:56:49;;;;;;;6.10;3.47;;;;;;;;;;1905257;75;21034;-41
2021/12/10 09:59:18;;;;;;;5.22;3.25;;;;;;;;;;1905271;75;21146;-41
2021/12/10 10:01:48;;;;;;;8.93;3.27;;;;;;;;;;1905161;75;21087;-42
2021/12/10 10:04:18;;;;;;;7.62;2.90;;;;;;;;;;1905168;75;21024;-42
2021/12/10 10:06:48;;;;;;;7.80;3.10;;;;;;;;;;1905214;75;21109;-41
2021/12/10 10:09:17;;;;;;;10.63;3.08;;;;;;;;;;1905258;75;21020;-41
2021/12/10 10:11:47;;;;;;;7.17;3.65;;;;;;;;;;1905270;75;21028;-41
2021/12/10 10:14:16;;;;;;;6.20;2.35;;;;;;;;;;1905169;74;20999;-43
2021/12/10 10:16:45;;;;;;;3.02;2.65;;;;;;;;;;1905209;75;21585;-42
2021/12/10 10:19:14;;;;;;;6.15;2.72;;;;;;;;;;1905251;75;21105;-42
2021/12/10 10:21:44;;;;;;;5.60;2.87;;;;;;;;;;1905109;75;21101;-43
2021/12/10 10:24:13;;;;;;;4.08;2.67;;;;;;;;;;1905187;75;21093;-41
2021/12/10 10:26:43;;;;;;;7.70;3.00;;;;;;;;;;1905262;75;21047;-41
2021/12/10 10:29:13;;;;;;;5.70;2.95;;;;;;;;;;1905138;75;21058;-42
2021/12/10 10:31:53;;;;;;;4.22;2.98;;;;;;;;;;1905276;75;21116;-41
2021/12/10 10:34:22;;;;;;;5.67;2.92;;;;;;;;;;1904738;74;21090;-41
2021/12/10 10:36:51;;;;;;;7.08;3.85;;;;;;;;;;1905225;75;21094;-41
2021/12/10 10:39:20;;;;;;;5.12;3.27;;;;;;;;;;1920143;74;21019;-41
2021/12/10 10:41:50;;;;;;;7.47;3.12;;;;;;;;;;1923728;74;21073;-41
2021/12/10 10:44:19;;;;;;;12.78;4.15;;;;;;;;;;1924777;74;21023;-42
2021/12/10 10:46:49;;;;;;;10.43;3.30;;;;;;;;;;1924610;74;21023;-42
2021/12/10 10:49:19;;;;;;;7.00;3.70;;;;;;;;;;1924637;74;21090;-41
2021/12/10 10:51:49;;;;;;;5.67;4.70;;;;;;;;;;1905336;74;21026;-41
2021/12/10 10:54:18;;;;;;;5.37;4.33;;;;;;;;;;1924711;74;21030;-42
2021/12/10 10:56:47;;;;;;;4.53;3.05;;;;;;;;;;1924621;74;21097;-42
2021/12/10 10:59:22;;;;;;;7.87;3.55;;;;;;;;;;1924716;74;21096;-41
2021/12/10 11:01:57;;;;;;;4.97;4.05;;;;;;;;;;1924746;74;21473;-43
2021/12/10 11:04:26;;;;;;;11.05;6.40;;;;;;;;;;1923263;74;21090;-41
2021/12/10 11:06:54;;;;;;;9.63;5.47;;;;;;;;;;1924538;74;21096;-41
2021/12/10 11:09:24;;;;;;;9.03;3.27;;;;;;;;;;1924836;74;21088;-41
2021/12/10 11:11:57;;;;;;;10.63;5.05;;;;;;;;;;1924651;74;21027;-41
2021/12/10 11:14:27;;;;;;;10.10;4.97;;;;;;;;;;1924644;74;21015;-41
2021/12/10 11:17:03;;;;;;;6.80;4.10;;;;;;;;;;1924750;74;21027;-41
2021/12/10 11:19:32;;;;;;;16.65;6.47;;;;;;;;;;1924323;74;21050;-42
2021/12/10 11:22:02;;;;;;;10.32;4.33;;;;;;;;;;1924643;74;21556;-41
2021/12/10 11:24:37;;;;;;;6.05;3.87;;;;;;;;;;1924730;74;21073;-41
2021/12/10 11:27:08;;;;;;;4.65;3.52;;;;;;;;;;1924602;74;21505;-42
2021/12/10 11:29:53;;;;;;;4.90;4.25;;;;;;;;;;1924717;74;21031;-41
2021/12/10 11:32:21;;;;;;;;;;;;;;;;;;1927532;74;21058;-41
2021/12/10 11:34:54;;;;;;;11.93;3.85;;;;;;;;;;1924647;74;20450;-41
2021/12/10 11:37:40;;;;;;;18.02;9.10;;;;;;;;;;1924643;74;21011;-41
2021/12/10 11:40:11;;;;;;;8.75;4.15;;;;;;;;;;1924667;74;21108;-41
2021/12/10 11:42:48;;;;;;;7.15;4.42;;;;;;;;;;1922726;74;20991;-41
2021/12/10 11:45:43;;;;;;;16.12;5.20;;;;;;;;;;1922372;74;21473;-41
2021/12/10 11:48:10;;;;;;;3.90;3.27;;;;;;;;;;1923882;74;21007;-42
2021/12/10 11:50:38;;;;;;;5.83;4.40;;;;;;;;;;1924551;74;21484;-41
2021/12/10 11:53:08;;;;;;;8.38;4.50;;;;;;;;;;1924625;74;21047;-41
2021/12/10 11:55:37;;;;;;;8.98;3.20;;;;;;;;;;1924704;74;21023;-41
2021/12/10 11:58:07;;;;;;;5.47;3.47;;;;;;;;;;1924716;74;21034;-41
2021/12/10 12:00:36;;;;;;;7.08;5.08;;;;;;;;;;1923842;74;21022;-41
2021/12/10 12:03:06;;;;;;;6.75;3.83;;;;;;;;;;1924512;74;21102;-41
2021/12/10 12:05:37;;;;;;;8.38;4.60;;;;;;;;;;1924545;74;21019;-41
2021/12/10 12:08:07;;;;;;;7.15;3.85;;;;;;;;;;1924505;74;21030;-42
2021/12/10 12:10:40;;;;;;;4.65;2.80;;;;;;;;;;1924501;74;21516;-41
2021/12/10 12:13:22;;;;;;;12.18;6.10;;;;;;;;;;1924480;74;21023;-42
2021/12/10 12:15:42;;;;;;;5.40;3.70;;;;;;;;;;1922933;74;21109;-42
2021/12/10 12:18:16;;;;;;;5.40;3.25;;;;;;;;;;1924548;74;21088;-43
2021/12/10 12:20:46;;;;;;;5.53;3.35;;;;;;;;;;1924588;74;21068;-41
2021/12/10 12:25:46;;;;;;;18.98;5.42;;;;;;;;;;1903211;74;21043;-41
2021/12/10 12:28:17;;;;;;;12.55;6.40;;;;;;;;;;1924506;74;21038;-41
2021/12/10 12:31:01;;;;;;;18.67;9.18;;;;;;;;;;1924553;74;20994;-41
2021/12/10 12:33:31;;;;;;;13.38;6.35;;;;;;;;;;1924709;74;20995;-42
2021/12/10 12:36:00;;;;;;;19.10;4.87;;;;;;;;;;1924549;74;20991;-41
2021/12/10 12:38:30;;;;;;;9.15;4.10;;;;;;;;;;1923553;74;21061;-42
2021/12/10 12:41:09;;;;;;;6.65;3.55;;;;;;;;;;1905050;75;21077;-42
2021/12/10 12:43:39;;;;;;;5.20;4.00;;;;;;;;;;1905170;74;21097;-41
2021/12/10 12:46:09;;;;;;;17.25;6.65;;;;;;;;;;1905193;75;21148;-42
2021/12/10 12:48:39;;;;;;;12.53;5.75;;;;;;;;;;1905192;75;21019;-42
2021/12/10 12:51:11;;;;;;;12.40;6.60;;;;;;;;;;1903979;74;21023;-41
2021/12/10 12:53:39;;;;;;;12.63;7.42;;;;;;;;;;1905115;75;21478;-41
2021/12/10 12:56:11;;;;;;;16.27;6.78;;;;;;;;;;1905049;75;21047;-41
2021/12/10 12:58:43;;;;;;;14.45;7.08;;;;;;;;;;1905243;75;21016;-41
2021/12/10 13:01:25;;;;;;;10.45;4.80;;;;;;;;;;1905090;75;21173;-41
2021/12/10 13:04:11;;;;;;;39.38;7.95;;;;;;;;;;1904145;74;21085;-42
2021/12/10 13:06:49;;;;;;;20.85;9.55;;;;;;;;;;1905347;75;20995;-42
2021/12/10 13:09:18;;;;;;;14.83;8.80;;;;;;;;;;1905248;74;21494;-41
2021/12/10 13:12:06;;;;;;;16.90;8.73;;;;;;;;;;1905250;75;21539;-42
2021/12/10 13:14:37;;;;;;;12.63;6.55;;;;;;;;;;1903617;74;21105;-41
2021/12/10 13:17:03;;;;;;;13.70;6.12;;;;;;;;;;1902788;75;21043;-42
2021/12/10 13:19:32;;;;;;;6.42;4.37;;;;;;;;;;1889214;75;21019;-41
2021/12/10 13:22:04;;;;;;;7.50;4.67;;;;;;;;;;1905221;75;21105;-42
2021/12/10 13:24:32;;;;;;;18.30;4.97;;;;;;;;;;1905192;75;21803;-42
2021/12/10 13:27:01;;;;;;;10.85;5.40;;;;;;;;;;1905294;75;21451;-41
2021/12/10 13:29:30;;;;;;;28.62;7.58;;;;;;;;;;1905213;75;21035;-41
2021/12/10 13:32:00;;;;;;;29.20;12.28;;;;;;;;;;1905107;75;21035;-42
2021/12/10 13:34:29;;;;;;;13.65;8.15;;;;;;;;;;1905094;74;21023;-41
2021/12/10 13:36:59;;;;;;;16.40;8.23;;;;;;;;;;1905296;75;21027;-42
2021/12/10 13:39:28;;;;;;;12.80;8.50;;;;;;;;;;1910333;74;21526;-41
2021/12/10 13:41:57;;;;;;;15.78;9.85;;;;;;;;;;1924566;74;21007;-42
2021/12/10 13:47:01;;;;;;;21.73;11.68;;;;;;;;;;1924894;74;21493;-41
2021/12/10 13:49:48;;;;;;;23.45;12.07;;;;;;;;;;1924716;74;21072;-41
2021/12/10 13:52:18;;;;;;;38.67;15.78;;;;;;;;;;1924624;74;21088;-41
2021/12/10 13:54:48;;;;;;;34.90;14.33;;;;;;;;;;1922487;74;21014;-41
2021/12/10 13:57:16;;;;;;;48.50;14.40;;;;;;;;;;1922359;74;20991;-43
2021/12/10 13:59:47;;;;;;;28.15;13.53;;;;;;;;;;1924688;74;21124;-42
2021/12/10 14:02:15;;;;;;;24.18;11.88;;;;;;;;;;1923654;74;21030;-41
2021/12/10 14:04:47;;;;;;;30.05;14.18;;;;;;;;;;1924610;74;21104;-42
2021/12/10 14:07:20;;;;;;;21.10;12.73;;;;;;;;;;1924681;74;21043;-41
2021/12/10 14:09:57;;;;;;;41.15;14.47;;;;;;;;;;1924540;74;21027;-41
2021/12/10 14:15:10;;;;;;;28.40;15.38;;;;;;;;;;1924565;74;21096;-41
2021/12/10 14:17:43;;;;;;;25.70;15.05;;;;;;;;;;1924747;74;21089;-41
2021/12/10 14:20:13;;;;;;;29.12;17.85;;;;;;;;;;1924480;74;21042;-42
2021/12/10 14:22:48;;;;;;;31.40;17.82;;;;;;;;;;1924678;74;21015;-41
2021/12/10 14:25:18;;;;;;;28.42;14.63;;;;;;;;;;1924776;74;21517;-41
2021/12/10 14:27:51;;;;;;;21.80;11.53;;;;;;;;;;1924690;74;21092;-41
2021/12/10 14:30:21;;;;;;;24.15;10.28;;;;;;;;;;1924122;74;21504;-42
2021/12/10 14:32:54;;;;;;;21.95;10.15;;;;;;;;;;1924547;74;21023;-42
2021/12/10 14:35:24;;;;;;;19.65;10.28;;;;;;;;;;1919614;74;21062;-41
2021/12/10 14:37:54;;;;;;;26.90;13.28;;;;;;;;;;1924624;74;21046;-41
2021/12/10 14:40:23;;;;;;;28.23;14.00;;;;;;;;;;1915711;74;21090;-41
2021/12/10 14:43:08;;;;;;;43.42;18.95;;;;;;;;;;1905300;75;21011;-42
2021/12/10 14:45:55;;;;;;;38.90;18.62;;;;;;;;;;1905384;75;21547;-41
2021/12/10 14:48:24;;;;;;;27.58;12.73;;;;;;;;;;1905146;75;21055;-41
2021/12/10 14:51:06;;;;;;;23.30;11.35;;;;;;;;;;1905262;75;21148;-42
2021/12/10 14:53:42;;;;;;;18.82;9.63;;;;;;;;;;1905237;75;21077;-43
2021/12/10 14:56:18;;;;;;;17.05;10.05;;;;;;;;;;1905241;74;21023;-43
2021/12/10 14:59:05;;;;;;;16.12;10.08;;;;;;;;;;1905227;75;21101;-41
2021/12/10 15:01:37;;;;;;;17.30;9.85;;;;;;;;;;1905149;75;21051;-41
2021/12/10 15:04:10;;;;;;;20.82;9.70;;;;;;;;;;1905208;74;21023;-41
2021/12/10 15:06:39;;;;;;;19.65;11.85;;;;;;;;;;1903832;74;21085;-41
2021/12/10 15:09:09;;;;;;;28.87;13.05;;;;;;;;;;1903989;74;21023;-41